createdAt,value
2019-03-15T00:01:50.589Z,83.57
2019-03-15T00:04:19.515Z,84.97
2019-03-15T00:06:48.452Z,87.77
2019-03-15T00:12:09.448Z,77.73
2019-03-15T00:14:38.531Z,87.27
2019-03-15T00:17:07.929Z,103.27
2019-03-15T00:19:37.167Z,94.43
2019-03-15T00:22:06.181Z,101.13
2019-03-15T00:24:35.047Z,95.83
2019-03-15T00:27:04.458Z,94.07
2019-03-15T00:29:33.532Z,102.17
2019-03-15T00:32:02.423Z,112.87
2019-03-15T00:34:31.274Z,89.30
2019-03-15T00:37:00.132Z,96.00
2019-03-15T00:39:29.051Z,119.57
2019-03-15T00:41:58.050Z,113.77
2019-03-15T00:44:26.918Z,79.43
2019-03-15T00:46:55.893Z,94.30
2019-03-15T00:49:24.780Z,102.50
2019-03-15T00:51:55.682Z,125.87
2019-03-15T00:54:24.556Z,105.87
2019-03-15T00:56:53.409Z,111.27
2019-03-15T00:59:22.340Z,92.60
2019-03-15T01:01:51.269Z,87.47
2019-03-15T01:04:20.144Z,108.10
2019-03-15T01:06:48.998Z,100.83
2019-03-15T01:09:18.082Z,104.87
2019-03-15T01:11:46.937Z,90.83
2019-03-15T01:14:15.864Z,90.73
2019-03-15T01:16:44.840Z,110.30
2019-03-15T01:19:13.898Z,86.30
2019-03-15T01:21:42.747Z,126.73
2019-03-15T01:24:11.958Z,97.23
2019-03-15T01:26:40.865Z,85.77
2019-03-15T01:29:09.972Z,78.90
2019-03-15T01:31:38.870Z,87.53
2019-03-15T01:34:07.805Z,81.60
2019-03-15T01:36:36.687Z,94.27
2019-03-15T01:39:06.809Z,104.70
2019-03-15T01:41:35.668Z,104.17
2019-03-15T01:44:04.672Z,114.40
2019-03-15T01:46:33.747Z,117.77
2019-03-15T01:49:02.893Z,99.47
2019-03-15T01:51:31.833Z,103.20
2019-03-15T01:54:00.721Z,84.13
2019-03-15T01:56:29.606Z,94.57
2019-03-15T01:58:58.557Z,90.27
2019-03-15T02:01:27.500Z,105.00
2019-03-15T02:03:56.474Z,95.10
2019-03-15T02:06:26.206Z,99.03
2019-03-15T02:08:55.137Z,94.27
2019-03-15T02:11:24.162Z,80.80
2019-03-15T02:13:53.025Z,67.17
2019-03-15T02:16:21.973Z,89.53
2019-03-15T02:18:50.839Z,90.00
2019-03-15T02:21:19.675Z,84.83
2019-03-15T02:23:48.642Z,86.20
2019-03-15T02:26:17.468Z,74.20
2019-03-15T02:28:46.424Z,93.97
2019-03-15T02:31:15.374Z,94.20
2019-03-15T02:33:44.293Z,80.67
2019-03-15T02:36:13.903Z,100.27
2019-03-15T02:38:43.193Z,79.90
2019-03-15T02:41:12.102Z,76.70
2019-03-15T02:43:41.079Z,88.57
2019-03-15T02:46:10.082Z,95.97
2019-03-15T02:48:40.611Z,103.93
2019-03-15T02:51:09.653Z,111.70
2019-03-15T02:53:38.589Z,89.33
2019-03-15T02:56:07.544Z,94.47
2019-03-15T02:58:36.381Z,99.77
2019-03-15T03:01:05.315Z,94.30
2019-03-15T03:03:34.242Z,112.63
2019-03-15T03:06:03.499Z,106.70
2019-03-15T03:08:32.512Z,111.10
2019-03-15T03:11:01.360Z,95.03
2019-03-15T03:13:30.631Z,126.60
2019-03-15T03:15:59.581Z,121.77
2019-03-15T03:18:28.553Z,105.83
2019-03-15T03:20:57.477Z,112.93
2019-03-15T03:23:26.406Z,113.03
2019-03-15T03:25:55.377Z,121.27
2019-03-15T03:28:24.230Z,128.93
2019-03-15T03:30:53.137Z,124.07
2019-03-15T03:33:22.064Z,111.17
2019-03-15T03:35:51.028Z,109.10
2019-03-15T03:38:20.014Z,103.03
2019-03-15T03:40:48.936Z,105.47
2019-03-15T03:43:17.816Z,106.30
2019-03-15T03:45:46.665Z,109.23
2019-03-15T03:48:16.028Z,97.87
2019-03-15T03:50:44.972Z,105.10
2019-03-15T03:53:13.903Z,103.17
2019-03-15T03:55:42.848Z,109.97
2019-03-15T03:58:11.789Z,129.80
2019-03-15T04:00:40.812Z,115.03
2019-03-15T04:03:09.901Z,108.53
2019-03-15T04:05:38.906Z,122.77
2019-03-15T04:08:07.930Z,124.00
2019-03-15T04:10:36.778Z,117.60
2019-03-15T04:13:05.644Z,119.63
2019-03-15T04:15:34.664Z,116.63
2019-03-15T04:18:06.530Z,130.97
2019-03-15T04:20:34.238Z,128.23
2019-03-15T04:23:03.280Z,117.50
2019-03-15T04:25:32.229Z,111.87
2019-03-15T04:28:01.096Z,119.57
2019-03-15T04:30:30.011Z,113.97
2019-03-15T04:32:59.448Z,133.80
2019-03-15T04:35:28.699Z,146.17
2019-03-15T04:37:57.641Z,120.40
2019-03-15T04:40:26.538Z,128.90
2019-03-15T04:42:55.416Z,117.73
2019-03-15T04:45:24.301Z,128.33
2019-03-15T04:47:53.159Z,126.63
2019-03-15T04:50:22.203Z,119.63
2019-03-15T04:52:51.143Z,122.47
2019-03-15T04:55:20.086Z,120.13
2019-03-15T04:57:49.102Z,119.73
2019-03-15T05:00:18.055Z,130.17
2019-03-15T05:02:47.010Z,122.33
2019-03-15T05:05:15.495Z,130.90
2019-03-15T05:07:44.445Z,157.57
2019-03-15T05:10:14.107Z,130.90
2019-03-15T05:12:43.372Z,133.30
2019-03-15T05:15:12.408Z,121.33
2019-03-15T05:17:41.364Z,125.80
2019-03-15T05:20:10.403Z,126.17
2019-03-15T05:22:39.332Z,120.03
2019-03-15T05:25:08.403Z,131.10
2019-03-15T05:27:37.354Z,150.40
2019-03-15T05:30:06.414Z,132.30
2019-03-15T05:32:35.362Z,126.10
2019-03-15T05:35:04.512Z,153.80
2019-03-15T05:37:33.456Z,145.20
2019-03-15T05:40:02.538Z,123.13
2019-03-15T05:42:31.472Z,137.40
2019-03-15T05:45:00.569Z,134.73
2019-03-15T05:47:29.445Z,136.50
2019-03-15T05:49:58.410Z,118.03
2019-03-15T05:52:27.345Z,133.90
2019-03-15T05:54:56.221Z,116.10
2019-03-15T05:57:25.098Z,120.50
2019-03-15T05:59:53.971Z,120.97
2019-03-15T06:02:26.573Z,126.57
2019-03-15T06:05:05.077Z,139.27
2019-03-15T06:07:34.873Z,139.53
2019-03-15T06:10:04.085Z,128.03
2019-03-15T06:12:33.201Z,138.93
2019-03-15T06:15:02.173Z,159.53
2019-03-15T06:17:31.064Z,142.10
2019-03-15T06:19:59.918Z,117.97
2019-03-15T06:22:28.829Z,130.60
2019-03-15T06:24:57.824Z,152.27
2019-03-15T06:27:26.776Z,85.80
2019-03-15T06:29:55.747Z,94.23
2019-03-15T06:32:24.863Z,89.43
2019-03-15T06:34:59.658Z,92.83
2019-03-15T06:37:28.621Z,93.50
2019-03-15T06:39:57.601Z,117.73
2019-03-15T06:42:26.765Z,113.93
2019-03-15T06:44:58.159Z,166.83
2019-03-15T06:47:26.237Z,85.03
2019-03-15T06:49:55.241Z,71.83
2019-03-15T06:52:24.145Z,67.77
2019-03-15T06:54:53.856Z,82.70
2019-03-15T06:57:22.836Z,74.40
2019-03-15T06:59:51.708Z,74.57
2019-03-15T07:02:20.729Z,85.23
2019-03-15T07:04:49.700Z,87.97
2019-03-15T07:07:19.447Z,101.13
2019-03-15T07:09:48.338Z,113.10
2019-03-15T07:12:17.227Z,128.13
2019-03-15T07:14:46.161Z,174.67
2019-03-15T07:17:15.117Z,152.83
2019-03-15T07:19:43.992Z,166.00
2019-03-15T07:22:12.935Z,164.63
2019-03-15T07:24:43.780Z,140.97
2019-03-15T07:27:13.535Z,142.90
2019-03-15T07:29:42.804Z,166.50
2019-03-15T07:32:11.773Z,159.63
2019-03-15T07:34:41.391Z,155.70
2019-03-15T07:37:10.492Z,156.33
2019-03-15T07:39:39.414Z,151.07
2019-03-15T07:42:08.372Z,158.40
2019-03-15T07:44:37.404Z,147.03
2019-03-15T07:47:06.385Z,175.17
2019-03-15T07:49:35.396Z,137.10
2019-03-15T07:52:04.416Z,156.10
2019-03-15T07:54:37.807Z,151.87
2019-03-15T07:57:03.977Z,147.77
2019-03-15T07:59:32.878Z,148.03
2019-03-15T08:02:01.821Z,149.67
2019-03-15T08:04:30.794Z,171.67
2019-03-15T08:06:59.874Z,158.80
2019-03-15T08:09:28.798Z,163.30
2019-03-15T08:11:58.939Z,178.27
2019-03-15T08:14:27.832Z,180.50
2019-03-15T08:16:56.804Z,155.70
2019-03-15T08:19:25.686Z,158.67
2019-03-15T08:21:56.581Z,157.60
2019-03-15T08:24:25.216Z,144.07
2019-03-15T08:26:54.207Z,154.83
2019-03-15T08:29:23.112Z,149.57
2019-03-15T08:31:52.083Z,144.07
2019-03-15T08:34:23.260Z,151.90
2019-03-15T08:36:52.273Z,168.87
2019-03-15T08:39:21.254Z,159.70
2019-03-15T08:41:50.240Z,154.90
2019-03-15T08:44:20.645Z,158.20
2019-03-15T08:46:49.625Z,151.10
2019-03-15T08:49:18.599Z,161.10
2019-03-15T08:51:48.767Z,161.33
2019-03-15T08:54:17.673Z,151.40
2019-03-15T08:56:46.668Z,166.60
2019-03-15T08:59:15.569Z,176.00
2019-03-15T09:01:44.509Z,182.10
2019-03-15T09:04:13.469Z,191.00
2019-03-15T09:06:42.369Z,176.37
2019-03-15T09:09:11.213Z,179.47
2019-03-15T09:11:40.100Z,171.37
2019-03-15T09:14:09.044Z,178.77
2019-03-15T09:16:38.112Z,162.77
2019-03-15T09:19:07.080Z,183.47
2019-03-15T09:21:36.138Z,178.30
2019-03-15T09:24:07.316Z,182.33
2019-03-15T09:26:36.176Z,173.50
2019-03-15T09:29:05.589Z,183.93
2019-03-15T09:31:47.062Z,190.80
2019-03-15T09:34:05.628Z,188.67
2019-03-15T09:36:49.059Z,188.80
2019-03-15T09:39:07.460Z,177.47
2019-03-15T09:41:39.999Z,187.07
2019-03-15T09:44:07.569Z,176.70
2019-03-15T09:46:40.516Z,179.60
2019-03-15T09:49:09.136Z,186.60
2019-03-15T09:51:40.652Z,176.87
2019-03-15T09:54:09.513Z,184.77
2019-03-15T09:56:38.485Z,181.80
2019-03-15T09:59:07.394Z,186.27
2019-03-15T10:01:36.458Z,191.03
2019-03-15T10:04:05.382Z,181.43
2019-03-15T10:06:34.332Z,210.23
2019-03-15T10:09:04.867Z,224.47
2019-03-15T10:11:33.869Z,203.17
2019-03-15T10:14:02.897Z,191.63
2019-03-15T10:16:31.921Z,198.47
2019-03-15T10:19:00.816Z,183.10
2019-03-15T10:21:29.745Z,206.37
2019-03-15T10:23:58.830Z,188.77
2019-03-15T10:26:27.733Z,203.40
2019-03-15T10:28:56.762Z,189.00
2019-03-15T10:31:26.831Z,189.87
2019-03-15T10:33:56.067Z,205.27
2019-03-15T10:36:25.034Z,201.20
2019-03-15T10:38:54.008Z,209.50
2019-03-15T10:41:22.872Z,209.10
2019-03-15T10:43:51.819Z,207.30
2019-03-15T10:46:20.832Z,201.17
2019-03-15T10:48:49.901Z,204.67
2019-03-15T10:51:18.917Z,203.53
2019-03-15T10:53:48.012Z,209.47
2019-03-15T10:56:16.911Z,203.87
2019-03-15T10:58:46.110Z,186.47
2019-03-15T11:01:15.233Z,209.23
2019-03-15T11:03:44.105Z,208.03
2019-03-15T11:06:12.986Z,203.33
2019-03-15T11:08:43.561Z,201.80
2019-03-15T11:11:13.368Z,186.73
2019-03-15T11:13:42.324Z,209.03
2019-03-15T11:16:11.334Z,200.50
2019-03-15T11:18:40.645Z,140.70
2019-03-15T11:21:10.975Z,202.90
2019-03-15T11:23:39.867Z,176.53
2019-03-15T11:26:13.834Z,119.30
2019-03-15T11:28:41.024Z,107.23
2019-03-15T11:31:13.607Z,110.10
2019-03-15T11:33:42.914Z,119.43
2019-03-15T11:36:14.625Z,135.87
2019-03-15T11:38:43.876Z,118.73
2019-03-15T11:41:15.541Z,140.37
2019-03-15T11:43:47.517Z,179.73
2019-03-15T11:46:37.626Z,160.40
2019-03-15T11:49:07.051Z,136.67
2019-03-15T11:51:36.025Z,109.03
2019-03-15T11:54:18.408Z,118.63
2019-03-15T11:56:50.604Z,115.70
2019-03-15T11:59:18.173Z,125.80
2019-03-15T12:01:59.150Z,126.03
2019-03-15T12:04:20.633Z,178.23
2019-03-15T12:06:49.565Z,195.80
2019-03-15T12:09:18.594Z,183.80
2019-03-15T12:11:47.870Z,185.33
2019-03-15T12:14:16.845Z,200.30
2019-03-15T12:16:46.187Z,204.57
2019-03-15T12:19:15.158Z,206.97
2019-03-15T12:21:48.377Z,194.03
2019-03-15T12:24:17.384Z,196.80
2019-03-15T12:26:46.573Z,186.50
2019-03-15T12:29:15.909Z,191.10
2019-03-15T12:31:46.452Z,189.03
2019-03-15T12:34:15.456Z,194.93
2019-03-15T12:36:44.363Z,115.70
2019-03-15T12:39:14.565Z,117.17
2019-03-15T12:41:44.825Z,116.87
2019-03-15T12:44:14.250Z,134.13
2019-03-15T12:46:43.456Z,123.93
2019-03-15T12:49:12.453Z,125.33
2019-03-15T12:51:41.402Z,132.87
2019-03-15T12:54:10.346Z,134.57
2019-03-15T12:56:39.362Z,203.37
2019-03-15T12:59:08.308Z,146.53
2019-03-15T13:01:37.377Z,147.50
2019-03-15T13:04:06.361Z,156.10
2019-03-15T13:06:35.343Z,146.63
2019-03-15T13:09:07.539Z,203.33
2019-03-15T13:11:36.761Z,151.97
2019-03-15T13:14:05.782Z,163.13
2019-03-15T13:16:34.743Z,160.20
2019-03-15T13:19:03.682Z,162.73
2019-03-15T13:21:32.635Z,173.40
2019-03-15T13:24:01.492Z,164.90
2019-03-15T13:26:30.439Z,175.87
2019-03-15T13:28:59.314Z,159.97
2019-03-15T13:31:28.155Z,162.53
2019-03-15T13:33:57.141Z,171.53
2019-03-15T13:36:25.999Z,167.57
2019-03-15T13:38:54.873Z,171.10
2019-03-15T13:41:23.736Z,187.67
2019-03-15T13:43:52.658Z,177.80
2019-03-15T13:46:21.542Z,176.70
2019-03-15T13:48:50.570Z,169.97
2019-03-15T13:51:22.522Z,175.47
2019-03-15T13:53:50.102Z,177.23
2019-03-15T13:56:19.577Z,175.47
2019-03-15T13:58:57.009Z,173.53
2019-03-15T14:01:19.156Z,174.30
2019-03-15T14:03:48.017Z,239.67
2019-03-15T14:06:16.933Z,268.03
2019-03-15T14:08:45.868Z,231.33
2019-03-15T14:11:14.731Z,256.17
2019-03-15T14:13:43.548Z,236.63
2019-03-15T14:16:12.402Z,223.60
2019-03-15T14:18:41.328Z,236.17
2019-03-15T14:21:10.620Z,256.83
2019-03-15T14:23:39.484Z,238.83
2019-03-15T14:26:08.422Z,242.00
2019-03-15T14:28:37.376Z,259.87
2019-03-15T14:31:06.237Z,272.37
2019-03-15T14:33:35.203Z,269.00
2019-03-15T14:36:04.180Z,294.07
2019-03-15T14:38:33.212Z,272.80
2019-03-15T14:41:02.340Z,298.00
2019-03-15T14:43:31.795Z,313.03
2019-03-15T14:46:00.652Z,293.67
2019-03-15T14:48:29.512Z,328.20
2019-03-15T14:50:58.529Z,328.83
2019-03-15T14:53:27.401Z,328.30
2019-03-15T14:55:56.426Z,273.03
2019-03-15T14:58:25.954Z,279.40
2019-03-15T15:00:54.878Z,250.10
2019-03-15T15:03:23.913Z,249.60
2019-03-15T15:05:52.923Z,229.10
2019-03-15T15:08:21.824Z,236.07
2019-03-15T15:10:50.718Z,223.40
2019-03-15T15:13:19.565Z,240.83
2019-03-15T15:15:48.428Z,241.17
2019-03-15T15:18:17.470Z,223.47
2019-03-15T15:20:46.392Z,211.33
2019-03-15T15:23:15.314Z,219.43
2019-03-15T15:25:44.391Z,218.90
2019-03-15T15:28:13.341Z,220.80
2019-03-15T15:30:42.409Z,199.70
2019-03-15T15:33:11.378Z,204.27
2019-03-15T15:35:41.623Z,205.43
2019-03-15T15:38:10.804Z,195.63
2019-03-15T15:40:39.713Z,209.57
2019-03-15T15:43:09.438Z,195.30
2019-03-15T15:45:38.352Z,199.33
2019-03-15T15:48:07.219Z,203.63
2019-03-15T15:50:36.052Z,216.10
2019-03-15T15:53:05.062Z,230.27
2019-03-15T15:55:34.012Z,200.13
2019-03-15T15:58:02.860Z,207.63
2019-03-15T16:00:31.832Z,193.47
2019-03-15T16:03:00.716Z,202.80
2019-03-15T16:05:29.573Z,200.60
2019-03-15T16:07:58.424Z,198.00
2019-03-15T16:10:27.372Z,224.07
2019-03-15T16:12:56.253Z,210.20
2019-03-15T16:15:25.179Z,209.17
2019-03-15T16:17:54.189Z,204.97
2019-03-15T16:20:23.136Z,192.10
2019-03-15T16:22:52.112Z,176.00
2019-03-15T16:25:21.035Z,203.17
2019-03-15T16:27:49.971Z,183.47
2019-03-15T16:30:18.927Z,188.90
2019-03-15T16:32:47.881Z,194.57
2019-03-15T16:35:16.876Z,188.67
2019-03-15T16:37:45.848Z,188.93
2019-03-15T16:40:14.863Z,182.77
2019-03-15T16:42:43.880Z,220.83
2019-03-15T16:45:15.320Z,191.73
2019-03-15T16:47:44.397Z,194.27
2019-03-15T16:50:13.843Z,186.17
2019-03-15T16:52:42.784Z,182.87
2019-03-15T16:55:11.821Z,180.57
2019-03-15T16:57:40.885Z,176.50
2019-03-15T17:00:11.145Z,177.23
2019-03-15T17:02:40.098Z,172.40
2019-03-15T17:05:09.338Z,168.23
2019-03-15T17:07:38.224Z,172.93
2019-03-15T17:10:08.141Z,162.97
2019-03-15T17:12:37.113Z,160.80
2019-03-15T17:15:06.987Z,163.37
2019-03-15T17:17:35.987Z,157.60
2019-03-15T17:20:05.361Z,153.10
2019-03-15T17:22:34.260Z,155.67
2019-03-15T17:25:03.196Z,168.13
2019-03-15T17:27:32.119Z,166.27
2019-03-15T17:30:00.964Z,160.33
2019-03-15T17:32:29.944Z,153.90
2019-03-15T17:34:58.824Z,154.30
2019-03-15T17:37:27.799Z,147.07
2019-03-15T17:39:56.664Z,149.27
2019-03-15T17:42:25.589Z,139.00
2019-03-15T17:44:54.449Z,148.40
2019-03-15T17:47:23.326Z,170.20
2019-03-15T17:49:52.176Z,199.33
2019-03-15T17:52:21.113Z,162.73
2019-03-15T17:54:50.055Z,166.63
2019-03-15T17:57:18.989Z,172.03
2019-03-15T18:00:10.814Z,162.27
2019-03-15T18:02:39.745Z,161.90
2019-03-15T18:05:09.155Z,164.83
2019-03-15T18:07:38.005Z,161.70
2019-03-15T18:10:07.024Z,158.77
2019-03-15T18:12:35.961Z,158.90
2019-03-15T18:15:05.020Z,168.57
2019-03-15T18:17:33.940Z,161.67
2019-03-15T18:20:02.824Z,158.80
2019-03-15T18:22:31.667Z,154.17
2019-03-15T18:25:00.583Z,162.83
2019-03-15T18:27:29.497Z,173.03
2019-03-15T18:29:58.476Z,149.53
2019-03-15T18:32:27.337Z,152.77
2019-03-15T18:34:56.192Z,148.50
2019-03-15T18:37:25.061Z,142.80
2019-03-15T18:39:54.023Z,128.37
2019-03-15T18:42:23.012Z,126.80
2019-03-15T18:44:51.945Z,114.50
2019-03-15T18:47:20.966Z,128.53
2019-03-15T18:49:49.929Z,113.77
2019-03-15T18:52:18.881Z,119.27
2019-03-15T18:54:47.785Z,119.63
2019-03-15T18:57:16.737Z,121.93
2019-03-15T18:59:45.597Z,110.27
2019-03-15T19:02:14.533Z,93.33
2019-03-15T19:04:43.417Z,72.30
2019-03-15T19:07:12.361Z,96.77
2019-03-15T19:09:41.324Z,63.83
2019-03-15T19:12:10.262Z,79.37
2019-03-15T19:14:39.281Z,90.00
2019-03-15T19:17:08.200Z,106.60
2019-03-15T19:19:37.114Z,79.97
2019-03-15T19:22:06.128Z,80.30
2019-03-15T19:24:35.020Z,74.93
2019-03-15T19:27:04.012Z,59.83
2019-03-15T19:29:32.896Z,58.17
2019-03-15T19:32:01.740Z,44.37
2019-03-15T19:34:31.446Z,35.57
2019-03-15T19:37:01.030Z,40.07
2019-03-15T19:39:30.044Z,29.20
2019-03-15T19:41:58.983Z,54.60
2019-03-15T19:44:27.826Z,52.33
2019-03-15T19:46:56.861Z,40.27
2019-03-15T19:49:25.789Z,33.17
2019-03-15T19:51:54.660Z,38.37
2019-03-15T19:54:23.581Z,46.23
2019-03-15T19:56:52.529Z,41.57
2019-03-15T19:59:21.453Z,34.87
2019-03-15T20:01:50.300Z,24.97
2019-03-15T20:04:19.183Z,26.57
2019-03-15T20:06:49.839Z,31.10
2019-03-15T20:09:18.643Z,30.53
2019-03-15T20:11:47.556Z,32.07
2019-03-15T20:14:16.938Z,24.83
2019-03-15T20:16:45.825Z,27.47
2019-03-15T20:19:14.324Z,31.10
2019-03-15T20:21:43.171Z,23.67
2019-03-15T20:24:12.179Z,30.70
2019-03-15T20:26:41.042Z,22.93
2019-03-15T20:29:09.892Z,21.57
2019-03-15T20:31:38.750Z,26.87
2019-03-15T20:34:07.705Z,26.43
2019-03-15T20:36:36.585Z,19.23
2019-03-15T20:39:07.455Z,32.00
2019-03-15T20:41:36.367Z,28.97
2019-03-15T20:44:05.343Z,41.67
2019-03-15T20:46:36.333Z,51.83
2019-03-15T20:49:05.288Z,41.87
2019-03-15T20:51:34.133Z,45.97
2019-03-15T20:54:02.987Z,26.13
2019-03-15T20:56:31.923Z,34.20
2019-03-15T20:59:00.865Z,41.33
2019-03-15T21:01:29.787Z,31.77
2019-03-15T21:03:58.659Z,35.80
2019-03-15T21:06:27.531Z,27.30
2019-03-15T21:08:56.379Z,41.03
2019-03-15T21:11:25.437Z,48.03
2019-03-15T21:13:54.298Z,51.87
2019-03-15T21:16:23.558Z,43.83
2019-03-15T21:18:52.422Z,51.40
2019-03-15T21:21:21.297Z,36.37
2019-03-15T21:23:50.159Z,45.97
2019-03-15T21:26:19.094Z,40.47
2019-03-15T21:28:48.034Z,54.93
2019-03-15T21:31:16.987Z,39.87
2019-03-15T21:33:45.908Z,28.90
2019-03-15T21:36:14.860Z,42.60
2019-03-15T21:38:48.391Z,38.80
2019-03-15T21:41:14.364Z,25.43
2019-03-15T21:43:43.198Z,44.20
2019-03-15T21:46:12.042Z,36.33
2019-03-15T21:48:40.883Z,37.73
2019-03-15T21:51:09.812Z,55.27
2019-03-15T21:53:38.736Z,49.37
2019-03-15T21:56:07.732Z,55.57
2019-03-15T21:58:36.572Z,40.43
2019-03-15T22:01:05.621Z,44.87
2019-03-15T22:03:34.478Z,58.47
2019-03-15T22:06:03.320Z,39.67
2019-03-15T22:08:32.177Z,37.87
2019-03-15T22:11:01.112Z,48.83
2019-03-15T22:13:30.008Z,51.47
2019-03-15T22:15:58.844Z,37.47
2019-03-15T22:18:27.681Z,48.60
2019-03-15T22:20:56.603Z,34.73
2019-03-15T22:23:25.443Z,33.87
2019-03-15T22:25:54.401Z,42.33
2019-03-15T22:28:23.367Z,25.23
2019-03-15T22:30:52.283Z,32.13
2019-03-15T22:33:21.138Z,45.30
2019-03-15T22:35:50.157Z,40.97
2019-03-15T22:38:26.317Z,27.00
2019-03-15T22:40:49.893Z,32.90
2019-03-15T22:43:18.732Z,35.87
2019-03-15T22:45:47.588Z,25.90
2019-03-15T22:48:16.427Z,31.93
2019-03-15T22:50:45.402Z,43.33
2019-03-15T22:53:14.335Z,30.87
2019-03-15T22:55:43.253Z,34.33
2019-03-15T22:58:12.104Z,32.93
2019-03-15T23:00:41.424Z,31.03
2019-03-15T23:03:10.340Z,36.37
2019-03-15T23:05:39.296Z,40.70
2019-03-15T23:08:08.231Z,32.30
2019-03-15T23:10:38.029Z,31.63
2019-03-15T23:13:07.108Z,26.47
2019-03-15T23:15:36.143Z,76.93
2019-03-15T23:18:05.155Z,55.73
2019-03-15T23:20:34.122Z,54.80
2019-03-15T23:23:03.037Z,34.00
2019-03-15T23:25:31.986Z,42.50
2019-03-15T23:28:01.894Z,53.30
2019-03-15T23:30:30.833Z,52.53
2019-03-15T23:32:59.767Z,39.90
2019-03-15T23:35:28.620Z,45.40
2019-03-15T23:37:57.483Z,50.30
2019-03-15T23:40:26.319Z,49.17
2019-03-15T23:42:55.258Z,47.53
2019-03-15T23:45:24.146Z,47.97
2019-03-15T23:47:53.103Z,49.03
2019-03-15T23:50:21.944Z,52.87
2019-03-15T23:52:50.808Z,54.73
2019-03-15T23:55:22.832Z,41.43
2019-03-15T23:57:51.683Z,37.30
